sensor_id;sensor_type;location;lat;lon;timestamp;P1;durP1;ratioP1;P2;durP2;ratioP2
47483;SDS011;54076;50.322;18.650;2022-08-19T00:01:39;14.10;;;7.20;;
47483;SDS011;54076;50.322;18.650;2022-08-19T00:06:43;10.50;;;7.00;;
47483;SDS011;54076;50.322;18.650;2022-08-19T00:11:45;12.50;;;7.50;;
47483;SDS011;54076;50.322;18.650;2022-08-19T00:16:47;12.20;;;7.10;;
47483;SDS011;54076;50.322;18.650;2022-08-19T00:21:49;12.60;;;7.10;;
47483;SDS011;54076;50.322;18.650;2022-08-19T00:26:51;13.50;;;7.60;;
47483;SDS011;54076;50.322;18.650;2022-08-19T00:31:53;14.50;;;6.90;;
47483;SDS011;54076;50.322;18.650;2022-08-19T00:36:57;13.30;;;7.20;;
47483;SDS011;54076;50.322;18.650;2022-08-19T00:41:58;14.20;;;7.90;;
47483;SDS011;54076;50.322;18.650;2022-08-19T00:46:59;13.50;;;8.10;;
47483;SDS011;54076;50.322;18.650;2022-08-19T00:57:15;13.40;;;7.20;;
47483;SDS011;54076;50.322;18.650;2022-08-19T01:02:19;13.10;;;7.20;;
47483;SDS011;54076;50.322;18.650;2022-08-19T01:07:20;14.90;;;6.70;;
47483;SDS011;54076;50.322;18.650;2022-08-19T01:12:22;12.90;;;7.50;;
47483;SDS011;54076;50.322;18.650;2022-08-19T01:17:23;13.80;;;7.70;;
47483;SDS011;54076;50.322;18.650;2022-08-19T01:22:26;13.60;;;8.00;;
47483;SDS011;54076;50.322;18.650;2022-08-19T01:27:39;13.60;;;8.10;;
47483;SDS011;54076;50.322;18.650;2022-08-19T01:32:42;14.00;;;8.00;;
47483;SDS011;54076;50.322;18.650;2022-08-19T01:37:46;15.20;;;7.80;;
47483;SDS011;54076;50.322;18.650;2022-08-19T01:43:08;16.10;;;8.10;;
47483;SDS011;54076;50.322;18.650;2022-08-19T01:48:09;13.40;;;8.20;;
47483;SDS011;54076;50.322;18.650;2022-08-19T01:53:11;13.20;;;8.50;;
47483;SDS011;54076;50.322;18.650;2022-08-19T01:58:21;14.50;;;7.70;;
47483;SDS011;54076;50.322;18.650;2022-08-19T02:03:26;12.70;;;7.60;;
47483;SDS011;54076;50.322;18.650;2022-08-19T02:08:29;15.90;;;8.50;;
47483;SDS011;54076;50.322;18.650;2022-08-19T02:13:31;15.30;;;8.60;;
47483;SDS011;54076;50.322;18.650;2022-08-19T02:18:32;15.00;;;8.10;;
47483;SDS011;54076;50.322;18.650;2022-08-19T02:23:34;12.80;;;8.50;;
47483;SDS011;54076;50.322;18.650;2022-08-19T02:28:35;14.00;;;7.80;;
47483;SDS011;54076;50.322;18.650;2022-08-19T02:33:37;14.40;;;8.60;;
47483;SDS011;54076;50.322;18.650;2022-08-19T02:38:39;14.30;;;8.30;;
47483;SDS011;54076;50.322;18.650;2022-08-19T02:43:41;15.60;;;8.60;;
47483;SDS011;54076;50.322;18.650;2022-08-19T02:48:42;13.40;;;8.50;;
47483;SDS011;54076;50.322;18.650;2022-08-19T02:53:44;13.90;;;8.50;;
47483;SDS011;54076;50.322;18.650;2022-08-19T02:58:45;14.40;;;7.90;;
47483;SDS011;54076;50.322;18.650;2022-08-19T03:03:47;14.90;;;7.90;;
47483;SDS011;54076;50.322;18.650;2022-08-19T03:08:48;14.00;;;8.50;;
47483;SDS011;54076;50.322;18.650;2022-08-19T03:13:50;17.90;;;8.70;;
47483;SDS011;54076;50.322;18.650;2022-08-19T03:18:52;14.20;;;8.70;;
47483;SDS011;54076;50.322;18.650;2022-08-19T03:23:55;14.30;;;9.00;;
47483;SDS011;54076;50.322;18.650;2022-08-19T03:29:02;18.40;;;9.00;;
47483;SDS011;54076;50.322;18.650;2022-08-19T03:34:04;14.20;;;8.90;;
47483;SDS011;54076;50.322;18.650;2022-08-19T03:39:05;14.60;;;8.80;;
47483;SDS011;54076;50.322;18.650;2022-08-19T03:44:06;16.20;;;9.00;;
47483;SDS011;54076;50.322;18.650;2022-08-19T03:49:09;17.40;;;9.10;;
47483;SDS011;54076;50.322;18.650;2022-08-19T03:54:12;14.80;;;9.00;;
47483;SDS011;54076;50.322;18.650;2022-08-19T03:59:22;14.00;;;8.70;;
47483;SDS011;54076;50.322;18.650;2022-08-19T04:04:26;17.60;;;9.10;;
47483;SDS011;54076;50.322;18.650;2022-08-19T04:09:29;14.80;;;8.60;;
47483;SDS011;54076;50.322;18.650;2022-08-19T04:14:30;13.00;;;8.70;;
47483;SDS011;54076;50.322;18.650;2022-08-19T04:19:34;14.60;;;8.60;;
47483;SDS011;54076;50.322;18.650;2022-08-19T04:24:36;15.20;;;9.30;;
47483;SDS011;54076;50.322;18.650;2022-08-19T04:29:38;15.80;;;9.80;;
47483;SDS011;54076;50.322;18.650;2022-08-19T04:34:41;21.20;;;9.50;;
47483;SDS011;54076;50.322;18.650;2022-08-19T04:39:43;25.10;;;10.10;;
47483;SDS011;54076;50.322;18.650;2022-08-19T04:45:09;17.30;;;8.70;;
47483;SDS011;54076;50.322;18.650;2022-08-19T04:50:11;15.70;;;10.10;;
47483;SDS011;54076;50.322;18.650;2022-08-19T04:55:13;15.20;;;9.40;;
47483;SDS011;54076;50.322;18.650;2022-08-19T05:00:14;16.40;;;9.60;;
47483;SDS011;54076;50.322;18.650;2022-08-19T05:05:15;17.00;;;9.90;;
47483;SDS011;54076;50.322;18.650;2022-08-19T05:10:16;18.50;;;10.10;;
47483;SDS011;54076;50.322;18.650;2022-08-19T05:15:17;18.10;;;9.10;;
47483;SDS011;54076;50.322;18.650;2022-08-19T05:20:19;16.70;;;8.80;;
47483;SDS011;54076;50.322;18.650;2022-08-19T05:25:40;15.00;;;9.10;;
47483;SDS011;54076;50.322;18.650;2022-08-19T05:30:41;14.10;;;8.60;;
47483;SDS011;54076;50.322;18.650;2022-08-19T05:35:44;13.90;;;8.60;;
47483;SDS011;54076;50.322;18.650;2022-08-19T05:40:45;14.50;;;9.10;;
47483;SDS011;54076;50.322;18.650;2022-08-19T05:45:49;18.90;;;9.10;;
47483;SDS011;54076;50.322;18.650;2022-08-19T05:50:51;18.30;;;9.20;;
47483;SDS011;54076;50.322;18.650;2022-08-19T05:55:52;19.40;;;9.80;;
47483;SDS011;54076;50.322;18.650;2022-08-19T06:00:53;16.90;;;9.60;;
47483;SDS011;54076;50.322;18.650;2022-08-19T06:05:54;14.20;;;8.80;;
47483;SDS011;54076;50.322;18.650;2022-08-19T06:10:55;16.00;;;8.70;;
47483;SDS011;54076;50.322;18.650;2022-08-19T06:15:57;16.00;;;9.00;;
47483;SDS011;54076;50.322;18.650;2022-08-19T06:20:57;15.60;;;8.10;;
47483;SDS011;54076;50.322;18.650;2022-08-19T06:25:58;16.10;;;8.30;;
47483;SDS011;54076;50.322;18.650;2022-08-19T06:31:05;16.40;;;9.10;;
47483;SDS011;54076;50.322;18.650;2022-08-19T06:36:15;13.70;;;8.60;;
47483;SDS011;54076;50.322;18.650;2022-08-19T06:41:17;14.10;;;9.00;;
47483;SDS011;54076;50.322;18.650;2022-08-19T06:46:19;17.30;;;8.80;;
47483;SDS011;54076;50.322;18.650;2022-08-19T06:51:21;16.70;;;8.60;;
47483;SDS011;54076;50.322;18.650;2022-08-19T06:56:27;15.40;;;8.60;;
47483;SDS011;54076;50.322;18.650;2022-08-19T07:01:41;15.00;;;8.90;;
47483;SDS011;54076;50.322;18.650;2022-08-19T07:06:47;14.70;;;8.80;;
47483;SDS011;54076;50.322;18.650;2022-08-19T07:11:50;16.50;;;9.00;;
47483;SDS011;54076;50.322;18.650;2022-08-19T07:16:54;17.30;;;9.60;;
47483;SDS011;54076;50.322;18.650;2022-08-19T07:21:57;15.50;;;8.80;;
47483;SDS011;54076;50.322;18.650;2022-08-19T07:27:01;17.40;;;9.00;;
47483;SDS011;54076;50.322;18.650;2022-08-19T07:32:05;19.10;;;9.40;;
47483;SDS011;54076;50.322;18.650;2022-08-19T07:37:06;16.80;;;10.00;;
47483;SDS011;54076;50.322;18.650;2022-08-19T07:42:09;17.30;;;9.50;;
47483;SDS011;54076;50.322;18.650;2022-08-19T07:47:14;16.50;;;9.80;;
47483;SDS011;54076;50.322;18.650;2022-08-19T07:52:16;24.40;;;9.40;;
47483;SDS011;54076;50.322;18.650;2022-08-19T07:57:17;16.80;;;9.00;;
47483;SDS011;54076;50.322;18.650;2022-08-19T08:02:19;16.40;;;9.40;;
47483;SDS011;54076;50.322;18.650;2022-08-19T08:07:20;15.70;;;9.70;;
47483;SDS011;54076;50.322;18.650;2022-08-19T08:12:40;16.70;;;9.20;;
47483;SDS011;54076;50.322;18.650;2022-08-19T08:17:42;18.80;;;8.70;;
47483;SDS011;54076;50.322;18.650;2022-08-19T08:22:45;19.10;;;10.00;;
47483;SDS011;54076;50.322;18.650;2022-08-19T08:28:06;14.90;;;9.20;;
47483;SDS011;54076;50.322;18.650;2022-08-19T08:33:09;15.30;;;9.00;;
47483;SDS011;54076;50.322;18.650;2022-08-19T08:38:10;19.40;;;10.30;;
47483;SDS011;54076;50.322;18.650;2022-08-19T08:43:39;21.60;;;9.00;;
47483;SDS011;54076;50.322;18.650;2022-08-19T08:54:12;14.70;;;8.90;;
47483;SDS011;54076;50.322;18.650;2022-08-19T08:59:30;13.90;;;8.60;;
47483;SDS011;54076;50.322;18.650;2022-08-19T09:04:37;14.30;;;8.10;;
47483;SDS011;54076;50.322;18.650;2022-08-19T09:09:50;15.10;;;8.50;;
47483;SDS011;54076;50.322;18.650;2022-08-19T09:14:58;13.20;;;9.20;;
47483;SDS011;54076;50.322;18.650;2022-08-19T09:20:22;14.90;;;8.30;;
47483;SDS011;54076;50.322;18.650;2022-08-19T09:25:24;15.00;;;8.40;;
47483;SDS011;54076;50.322;18.650;2022-08-19T09:30:27;12.50;;;8.00;;
47483;SDS011;54076;50.322;18.650;2022-08-19T09:35:31;16.10;;;7.70;;
47483;SDS011;54076;50.322;18.650;2022-08-19T09:40:33;12.80;;;7.60;;
47483;SDS011;54076;50.322;18.650;2022-08-19T09:45:34;12.70;;;7.70;;
47483;SDS011;54076;50.322;18.650;2022-08-19T09:50:35;14.20;;;8.60;;
47483;SDS011;54076;50.322;18.650;2022-08-19T09:55:44;17.20;;;8.10;;
47483;SDS011;54076;50.322;18.650;2022-08-19T10:00:46;13.30;;;7.80;;
47483;SDS011;54076;50.322;18.650;2022-08-19T10:05:47;18.90;;;8.00;;
47483;SDS011;54076;50.322;18.650;2022-08-19T10:10:51;16.60;;;7.90;;
47483;SDS011;54076;50.322;18.650;2022-08-19T10:15:54;15.40;;;7.40;;
47483;SDS011;54076;50.322;18.650;2022-08-19T10:21:15;16.00;;;7.50;;
47483;SDS011;54076;50.322;18.650;2022-08-19T10:26:24;15.20;;;8.70;;
47483;SDS011;54076;50.322;18.650;2022-08-19T10:31:30;13.70;;;7.10;;
47483;SDS011;54076;50.322;18.650;2022-08-19T10:36:34;15.50;;;7.80;;
47483;SDS011;54076;50.322;18.650;2022-08-19T10:41:39;15.90;;;9.20;;
47483;SDS011;54076;50.322;18.650;2022-08-19T10:46:42;12.30;;;7.40;;
47483;SDS011;54076;50.322;18.650;2022-08-19T10:51:47;12.60;;;7.90;;
47483;SDS011;54076;50.322;18.650;2022-08-19T10:57:06;14.80;;;8.50;;
47483;SDS011;54076;50.322;18.650;2022-08-19T11:02:10;21.10;;;8.30;;
47483;SDS011;54076;50.322;18.650;2022-08-19T11:07:12;15.00;;;7.90;;
47483;SDS011;54076;50.322;18.650;2022-08-19T11:12:13;15.00;;;7.90;;
47483;SDS011;54076;50.322;18.650;2022-08-19T11:17:15;12.30;;;7.50;;
47483;SDS011;54076;50.322;18.650;2022-08-19T11:22:16;15.90;;;7.30;;
47483;SDS011;54076;50.322;18.650;2022-08-19T11:27:17;13.40;;;7.50;;
47483;SDS011;54076;50.322;18.650;2022-08-19T11:32:18;12.70;;;7.80;;
47483;SDS011;54076;50.322;18.650;2022-08-19T11:37:19;14.00;;;7.00;;
47483;SDS011;54076;50.322;18.650;2022-08-19T11:42:20;13.70;;;7.30;;
47483;SDS011;54076;50.322;18.650;2022-08-19T11:47:47;13.60;;;7.20;;
47483;SDS011;54076;50.322;18.650;2022-08-19T11:52:49;15.50;;;7.30;;
47483;SDS011;54076;50.322;18.650;2022-08-19T11:57:50;12.90;;;6.70;;
47483;SDS011;54076;50.322;18.650;2022-08-19T12:02:51;12.80;;;6.50;;
47483;SDS011;54076;50.322;18.650;2022-08-19T12:07:52;12.60;;;6.50;;
47483;SDS011;54076;50.322;18.650;2022-08-19T12:12:54;12.00;;;6.60;;
47483;SDS011;54076;50.322;18.650;2022-08-19T12:17:56;11.70;;;7.00;;
47483;SDS011;54076;50.322;18.650;2022-08-19T12:22:58;13.60;;;6.60;;
47483;SDS011;54076;50.322;18.650;2022-08-19T12:27:59;21.50;;;6.70;;
47483;SDS011;54076;50.322;18.650;2022-08-19T12:33:00;12.10;;;7.10;;
47483;SDS011;54076;50.322;18.650;2022-08-19T12:38:00;14.70;;;6.70;;
47483;SDS011;54076;50.322;18.650;2022-08-19T12:43:03;12.20;;;7.10;;
47483;SDS011;54076;50.322;18.650;2022-08-19T12:48:04;13.90;;;6.30;;
47483;SDS011;54076;50.322;18.650;2022-08-19T12:53:05;18.40;;;8.40;;
47483;SDS011;54076;50.322;18.650;2022-08-19T12:58:06;10.20;;;6.30;;
47483;SDS011;54076;50.322;18.650;2022-08-19T13:03:07;15.00;;;6.40;;
47483;SDS011;54076;50.322;18.650;2022-08-19T13:08:08;10.90;;;6.50;;
47483;SDS011;54076;50.322;18.650;2022-08-19T13:13:12;13.30;;;6.30;;
47483;SDS011;54076;50.322;18.650;2022-08-19T13:18:13;12.80;;;5.90;;
47483;SDS011;54076;50.322;18.650;2022-08-19T13:23:14;12.00;;;6.30;;
47483;SDS011;54076;50.322;18.650;2022-08-19T13:28:15;14.10;;;6.50;;
47483;SDS011;54076;50.322;18.650;2022-08-19T13:33:17;11.40;;;6.10;;
47483;SDS011;54076;50.322;18.650;2022-08-19T13:38:20;10.20;;;6.10;;
47483;SDS011;54076;50.322;18.650;2022-08-19T13:43:25;11.00;;;6.50;;
47483;SDS011;54076;50.322;18.650;2022-08-19T13:48:27;13.40;;;5.80;;
47483;SDS011;54076;50.322;18.650;2022-08-19T13:53:28;13.30;;;5.70;;
47483;SDS011;54076;50.322;18.650;2022-08-19T13:58:30;12.50;;;5.80;;
47483;SDS011;54076;50.322;18.650;2022-08-19T14:03:32;13.40;;;6.40;;
47483;SDS011;54076;50.322;18.650;2022-08-19T14:08:34;13.10;;;6.20;;
47483;SDS011;54076;50.322;18.650;2022-08-19T14:13:40;15.10;;;6.50;;
47483;SDS011;54076;50.322;18.650;2022-08-19T14:18:41;11.20;;;5.90;;
47483;SDS011;54076;50.322;18.650;2022-08-19T14:23:44;9.70;;;5.10;;
47483;SDS011;54076;50.322;18.650;2022-08-19T14:28:45;13.00;;;7.00;;
47483;SDS011;54076;50.322;18.650;2022-08-19T14:33:47;10.90;;;5.80;;
47483;SDS011;54076;50.322;18.650;2022-08-19T14:38:48;11.30;;;5.10;;
47483;SDS011;54076;50.322;18.650;2022-08-19T14:43:51;9.80;;;6.20;;
47483;SDS011;54076;50.322;18.650;2022-08-19T14:48:54;14.80;;;6.40;;
47483;SDS011;54076;50.322;18.650;2022-08-19T14:53:57;11.00;;;5.90;;
47483;SDS011;54076;50.322;18.650;2022-08-19T14:58:58;13.30;;;6.00;;
47483;SDS011;54076;50.322;18.650;2022-08-19T15:04:01;11.10;;;5.80;;
47483;SDS011;54076;50.322;18.650;2022-08-19T15:09:03;12.60;;;6.40;;
47483;SDS011;54076;50.322;18.650;2022-08-19T15:14:05;11.00;;;6.30;;
47483;SDS011;54076;50.322;18.650;2022-08-19T15:19:06;13.90;;;6.20;;
47483;SDS011;54076;50.322;18.650;2022-08-19T15:24:08;12.40;;;6.10;;
47483;SDS011;54076;50.322;18.650;2022-08-19T15:29:09;9.50;;;6.30;;
47483;SDS011;54076;50.322;18.650;2022-08-19T15:34:13;14.10;;;6.40;;
47483;SDS011;54076;50.322;18.650;2022-08-19T15:39:14;15.50;;;6.30;;
47483;SDS011;54076;50.322;18.650;2022-08-19T15:44:16;13.00;;;5.80;;
47483;SDS011;54076;50.322;18.650;2022-08-19T15:49:19;18.40;;;6.90;;
47483;SDS011;54076;50.322;18.650;2022-08-19T15:54:20;9.80;;;5.90;;
47483;SDS011;54076;50.322;18.650;2022-08-19T15:59:21;12.20;;;6.20;;
47483;SDS011;54076;50.322;18.650;2022-08-19T16:04:41;15.60;;;6.50;;
47483;SDS011;54076;50.322;18.650;2022-08-19T16:10:05;12.30;;;5.70;;
47483;SDS011;54076;50.322;18.650;2022-08-19T16:15:11;12.70;;;7.30;;
47483;SDS011;54076;50.322;18.650;2022-08-19T16:20:14;14.40;;;7.80;;
47483;SDS011;54076;50.322;18.650;2022-08-19T16:25:16;15.40;;;7.90;;
47483;SDS011;54076;50.322;18.650;2022-08-19T16:30:17;14.40;;;7.10;;
47483;SDS011;54076;50.322;18.650;2022-08-19T16:35:18;14.80;;;8.10;;
47483;SDS011;54076;50.322;18.650;2022-08-19T16:40:19;14.60;;;7.90;;
47483;SDS011;54076;50.322;18.650;2022-08-19T16:45:20;17.30;;;8.00;;
47483;SDS011;54076;50.322;18.650;2022-08-19T16:50:21;13.70;;;7.40;;
47483;SDS011;54076;50.322;18.650;2022-08-19T16:55:22;18.60;;;7.30;;
47483;SDS011;54076;50.322;18.650;2022-08-19T17:00:23;15.50;;;7.70;;
47483;SDS011;54076;50.322;18.650;2022-08-19T17:05:24;15.10;;;7.50;;
47483;SDS011;54076;50.322;18.650;2022-08-19T17:10:25;18.80;;;8.30;;
47483;SDS011;54076;50.322;18.650;2022-08-19T17:15:27;19.20;;;7.10;;
47483;SDS011;54076;50.322;18.650;2022-08-19T17:20:31;15.90;;;6.70;;
47483;SDS011;54076;50.322;18.650;2022-08-19T17:25:33;12.60;;;5.80;;
47483;SDS011;54076;50.322;18.650;2022-08-19T17:30:34;14.30;;;5.50;;
47483;SDS011;54076;50.322;18.650;2022-08-19T17:35:36;7.90;;;2.90;;
47483;SDS011;54076;50.322;18.650;2022-08-19T17:40:44;8.70;;;3.50;;
47483;SDS011;54076;50.322;18.650;2022-08-19T17:45:46;13.60;;;3.60;;
47483;SDS011;54076;50.322;18.650;2022-08-19T17:50:47;11.30;;;4.70;;
47483;SDS011;54076;50.322;18.650;2022-08-19T17:55:48;12.10;;;4.30;;
47483;SDS011;54076;50.322;18.650;2022-08-19T18:00:49;13.00;;;4.30;;
47483;SDS011;54076;50.322;18.650;2022-08-19T18:05:51;14.00;;;4.70;;
47483;SDS011;54076;50.322;18.650;2022-08-19T18:10:53;16.60;;;5.70;;
47483;SDS011;54076;50.322;18.650;2022-08-19T18:15:54;11.90;;;3.90;;
47483;SDS011;54076;50.322;18.650;2022-08-19T18:20:57;11.90;;;3.70;;
47483;SDS011;54076;50.322;18.650;2022-08-19T18:25:59;12.40;;;4.10;;
47483;SDS011;54076;50.322;18.650;2022-08-19T18:31:01;12.70;;;3.90;;
47483;SDS011;54076;50.322;18.650;2022-08-19T18:36:04;9.70;;;3.70;;
47483;SDS011;54076;50.322;18.650;2022-08-19T18:41:06;12.10;;;4.50;;
47483;SDS011;54076;50.322;18.650;2022-08-19T18:46:26;15.10;;;5.90;;
47483;SDS011;54076;50.322;18.650;2022-08-19T18:51:46;14.00;;;5.30;;
47483;SDS011;54076;50.322;18.650;2022-08-19T18:56:47;16.80;;;5.30;;
47483;SDS011;54076;50.322;18.650;2022-08-19T19:01:49;15.30;;;5.90;;
47483;SDS011;54076;50.322;18.650;2022-08-19T19:06:54;13.40;;;4.80;;
47483;SDS011;54076;50.322;18.650;2022-08-19T19:11:58;10.00;;;4.20;;
47483;SDS011;54076;50.322;18.650;2022-08-19T19:17:04;12.60;;;4.60;;
47483;SDS011;54076;50.322;18.650;2022-08-19T19:22:09;17.20;;;5.50;;
47483;SDS011;54076;50.322;18.650;2022-08-19T19:27:13;13.70;;;5.00;;
47483;SDS011;54076;50.322;18.650;2022-08-19T19:32:27;10.40;;;5.00;;
47483;SDS011;54076;50.322;18.650;2022-08-19T19:37:33;13.00;;;4.80;;
47483;SDS011;54076;50.322;18.650;2022-08-19T19:42:35;13.50;;;4.60;;
47483;SDS011;54076;50.322;18.650;2022-08-19T19:47:36;11.40;;;4.40;;
47483;SDS011;54076;50.322;18.650;2022-08-19T19:52:38;9.00;;;3.80;;
47483;SDS011;54076;50.322;18.650;2022-08-19T19:57:40;9.10;;;3.90;;
47483;SDS011;54076;50.322;18.650;2022-08-19T20:02:41;11.80;;;3.90;;
47483;SDS011;54076;50.322;18.650;2022-08-19T20:07:45;9.90;;;3.60;;
47483;SDS011;54076;50.322;18.650;2022-08-19T20:13:05;10.80;;;3.70;;
47483;SDS011;54076;50.322;18.650;2022-08-19T20:18:07;10.00;;;3.70;;
47483;SDS011;54076;50.322;18.650;2022-08-19T20:23:09;11.50;;;4.00;;
47483;SDS011;54076;50.322;18.650;2022-08-19T20:28:11;11.90;;;3.70;;
47483;SDS011;54076;50.322;18.650;2022-08-19T20:33:12;7.90;;;3.70;;
47483;SDS011;54076;50.322;18.650;2022-08-19T20:38:14;7.80;;;3.20;;
47483;SDS011;54076;50.322;18.650;2022-08-19T20:43:15;11.30;;;3.70;;
47483;SDS011;54076;50.322;18.650;2022-08-19T20:48:16;10.10;;;4.00;;
47483;SDS011;54076;50.322;18.650;2022-08-19T20:53:19;9.60;;;4.10;;
47483;SDS011;54076;50.322;18.650;2022-08-19T20:58:23;8.60;;;3.80;;
47483;SDS011;54076;50.322;18.650;2022-08-19T21:03:31;9.90;;;4.60;;
47483;SDS011;54076;50.322;18.650;2022-08-19T21:08:35;11.20;;;4.60;;
47483;SDS011;54076;50.322;18.650;2022-08-19T21:13:37;10.70;;;5.00;;
47483;SDS011;54076;50.322;18.650;2022-08-19T21:18:38;15.00;;;5.20;;
47483;SDS011;54076;50.322;18.650;2022-08-19T21:23:39;11.80;;;5.50;;
47483;SDS011;54076;50.322;18.650;2022-08-19T21:28:40;11.70;;;5.00;;
47483;SDS011;54076;50.322;18.650;2022-08-19T21:33:41;13.00;;;4.90;;
47483;SDS011;54076;50.322;18.650;2022-08-19T21:38:42;9.70;;;4.80;;
47483;SDS011;54076;50.322;18.650;2022-08-19T21:43:43;10.60;;;5.20;;
47483;SDS011;54076;50.322;18.650;2022-08-19T21:48:44;8.90;;;4.70;;
47483;SDS011;54076;50.322;18.650;2022-08-19T21:53:45;11.00;;;4.70;;
47483;SDS011;54076;50.322;18.650;2022-08-19T21:58:46;10.60;;;5.00;;
47483;SDS011;54076;50.322;18.650;2022-08-19T22:03:47;15.40;;;6.10;;
47483;SDS011;54076;50.322;18.650;2022-08-19T22:08:48;12.30;;;5.30;;
47483;SDS011;54076;50.322;18.650;2022-08-19T22:13:49;13.80;;;6.70;;
47483;SDS011;54076;50.322;18.650;2022-08-19T22:18:53;16.20;;;7.80;;
47483;SDS011;54076;50.322;18.650;2022-08-19T22:23:54;16.10;;;8.20;;
47483;SDS011;54076;50.322;18.650;2022-08-19T22:28:55;16.30;;;7.80;;
47483;SDS011;54076;50.322;18.650;2022-08-19T22:33:56;14.40;;;7.80;;
47483;SDS011;54076;50.322;18.650;2022-08-19T22:38:58;16.20;;;6.50;;
47483;SDS011;54076;50.322;18.650;2022-08-19T22:43:59;10.50;;;5.30;;
47483;SDS011;54076;50.322;18.650;2022-08-19T22:49:01;13.60;;;5.20;;
47483;SDS011;54076;50.322;18.650;2022-08-19T22:54:02;10.60;;;4.80;;
47483;SDS011;54076;50.322;18.650;2022-08-19T22:59:04;12.50;;;4.80;;
47483;SDS011;54076;50.322;18.650;2022-08-19T23:04:05;11.30;;;5.50;;
47483;SDS011;54076;50.322;18.650;2022-08-19T23:09:07;12.10;;;5.20;;
47483;SDS011;54076;50.322;18.650;2022-08-19T23:14:09;9.80;;;4.90;;
47483;SDS011;54076;50.322;18.650;2022-08-19T23:19:12;12.40;;;5.40;;
47483;SDS011;54076;50.322;18.650;2022-08-19T23:24:13;17.00;;;5.20;;
47483;SDS011;54076;50.322;18.650;2022-08-19T23:29:13;11.40;;;5.30;;
47483;SDS011;54076;50.322;18.650;2022-08-19T23:34:33;17.00;;;6.30;;
47483;SDS011;54076;50.322;18.650;2022-08-19T23:39:34;16.70;;;6.80;;
47483;SDS011;54076;50.322;18.650;2022-08-19T23:44:36;16.30;;;6.90;;
47483;SDS011;54076;50.322;18.650;2022-08-19T23:49:38;17.10;;;7.50;;
47483;SDS011;54076;50.322;18.650;2022-08-19T23:54:39;15.20;;;7.10;;
47483;SDS011;54076;50.322;18.650;2022-08-19T23:59:41;16.80;;;7.10;;
